Time;durP1;ratioP1;P1;durP2;ratioP2;P2;SDS_P1;SDS_P2;PMS_P1;PMS_P2;Temp;Humidity;BMP_temperature;BMP_pressure;BME280_temperature;BME280_humidity;BME280_pressure;Samples;Min_cycle;Max_cycle;Signal;HPM_P1;HPM_P2
2021/07/21 00:02:16;;;;;;;24.30;14.65;;;;;;;;;;5008358;28;20042;-55
2021/07/21 00:04:42;;;;;;;26.05;14.52;;;;;;;;;;5007766;28;20467;-56
2021/07/21 00:07:09;;;;;;;24.27;15.82;;;;;;;;;;5008506;28;20041;-55
2021/07/21 00:09:35;;;;;;;22.63;13.90;;;;;;;;;;5005419;28;20042;-56
2021/07/21 00:14:45;;;;;;;25.92;13.82;;;;;;;;;;5011711;28;20435;-54
2021/07/21 00:17:24;;;;;;;22.88;13.95;;;;;;;;;;5011712;28;20132;-58
2021/07/21 00:20:06;;;;;;;21.02;13.55;;;;;;;;;;5011808;28;20046;-58
2021/07/21 00:22:50;;;;;;;24.00;13.93;;;;;;;;;;5012070;28;20979;-57
2021/07/21 00:25:16;;;;;;;22.17;13.80;;;;;;;;;;5011647;28;20034;-57
2021/07/21 00:27:43;;;;;;;26.30;14.35;;;;;;;;;;5012091;28;20049;-57
2021/07/21 00:30:10;;;;;;;25.15;14.98;;;;;;;;;;5012175;28;20450;-57
2021/07/21 00:32:36;;;;;;;22.17;12.82;;;;;;;;;;5009657;28;20049;-56
2021/07/21 00:35:04;;;;;;;24.73;13.32;;;;;;;;;;5012193;28;20868;-58
2021/07/21 00:37:30;;;;;;;22.10;13.82;;;;;;;;;;5011892;28;20038;-58
2021/07/21 00:39:56;;;;;;;28.73;13.90;;;;;;;;;;5011786;28;20061;-58
2021/07/21 00:42:21;;;;;;;28.42;14.27;;;;;;;;;;5010926;28;20045;-58
2021/07/21 00:44:47;;;;;;;24.33;13.65;;;;;;;;;;5013048;28;20033;-55
2021/07/21 00:47:13;;;;;;;24.63;12.88;;;;;;;;;;5012489;28;20033;-57
2021/07/21 00:49:40;;;;;;;23.65;13.75;;;;;;;;;;5011256;28;20048;-57
2021/07/21 00:52:08;;;;;;;26.27;13.40;;;;;;;;;;5009895;28;20465;-58
2021/07/21 00:54:35;;;;;;;21.15;13.05;;;;;;;;;;5016229;28;20121;-59
2021/07/21 00:57:19;;;;;;;25.13;13.75;;;;;;;;;;5024826;28;20397;-58
2021/07/21 00:59:47;;;;;;;23.30;12.88;;;;;;;;;;5028938;28;20057;-58
2021/07/21 01:02:16;;;;;;;22.23;12.27;;;;;;;;;;5024512;28;20612;-58
2021/07/21 01:04:41;;;;;;;23.65;13.80;;;;;;;;;;5024343;28;20065;-58
2021/07/21 01:07:08;;;;;;;23.08;13.15;;;;;;;;;;5024767;28;20144;-58
2021/07/21 01:09:37;;;;;;;25.20;13.60;;;;;;;;;;5024783;28;20096;-57
2021/07/21 01:12:09;;;;;;;21.52;12.32;;;;;;;;;;5023768;28;20045;-57
2021/07/21 01:14:43;;;;;;;24.02;11.93;;;;;;;;;;5024725;28;20045;-57
2021/07/21 01:17:11;;;;;;;21.95;12.07;;;;;;;;;;5023438;28;20033;-57
2021/07/21 01:19:37;;;;;;;21.42;12.63;;;;;;;;;;5022032;28;20099;-57
2021/07/21 01:22:06;;;;;;;24.05;13.40;;;;;;;;;;5023645;28;20521;-54
2021/07/21 01:24:50;;;;;;;23.77;13.02;;;;;;;;;;5023506;28;20037;-58
2021/07/21 01:27:35;;;;;;;19.33;11.65;;;;;;;;;;5024436;28;20676;-54
2021/07/21 01:30:11;;;;;;;22.63;11.52;;;;;;;;;;5022627;28;20057;-56
2021/07/21 01:32:38;;;;;;;22.50;11.98;;;;;;;;;;5024779;28;20391;-57
2021/07/21 01:35:12;;;;;;;23.30;12.98;;;;;;;;;;5016549;28;20052;-57
2021/07/21 01:37:39;;;;;;;20.38;11.82;;;;;;;;;;5025335;28;20057;-57
2021/07/21 01:40:06;;;;;;;20.08;10.57;;;;;;;;;;5009215;28;20048;-57
2021/07/21 01:42:34;;;;;;;18.85;10.73;;;;;;;;;;5008820;28;20042;-57
2021/07/21 01:45:00;;;;;;;22.58;11.00;;;;;;;;;;5011705;28;20037;-54
2021/07/21 01:47:28;;;;;;;21.58;11.18;;;;;;;;;;5013189;28;20037;-57
2021/07/21 01:49:54;;;;;;;23.48;11.65;;;;;;;;;;5014777;28;20033;-56
2021/07/21 01:52:29;;;;;;;28.00;12.30;;;;;;;;;;5007832;28;20439;-56
2021/07/21 01:54:56;;;;;;;23.02;11.00;;;;;;;;;;5012369;28;20033;-58
2021/07/21 01:57:23;;;;;;;20.77;11.55;;;;;;;;;;5012501;28;20128;-58
2021/07/21 01:59:50;;;;;;;20.88;11.73;;;;;;;;;;5014656;28;21129;-59
2021/07/21 02:02:17;;;;;;;26.77;13.13;;;;;;;;;;5012498;28;20067;-56
2021/07/21 02:04:43;;;;;;;21.13;12.23;;;;;;;;;;5010036;28;20132;-58
2021/07/21 02:07:10;;;;;;;20.13;12.13;;;;;;;;;;5010514;28;20518;-57
2021/07/21 02:09:37;;;;;;;20.98;12.18;;;;;;;;;;5007516;28;20471;-58
2021/07/21 02:12:03;;;;;;;25.23;13.52;;;;;;;;;;5012040;28;20045;-57
2021/07/21 02:14:28;;;;;;;26.85;12.90;;;;;;;;;;5008208;28;20046;-58
2021/07/21 02:16:55;;;;;;;25.73;13.10;;;;;;;;;;5012864;28;20510;-57
2021/07/21 02:19:22;;;;;;;21.90;12.60;;;;;;;;;;5010570;28;20064;-58
2021/07/21 02:21:48;;;;;;;26.40;13.02;;;;;;;;;;5009434;28;20049;-55
2021/07/21 02:24:14;;;;;;;23.80;13.57;;;;;;;;;;5010368;28;20083;-56
2021/07/21 02:26:41;;;;;;;23.15;13.52;;;;;;;;;;5008752;28;20042;-58
2021/07/21 02:29:07;;;;;;;24.05;13.25;;;;;;;;;;5010339;28;20026;-55
2021/07/21 02:31:49;;;;;;;22.45;13.73;;;;;;;;;;5009957;28;20065;-58
2021/07/21 02:34:14;;;;;;;22.05;13.25;;;;;;;;;;5009615;28;20042;-58
2021/07/21 02:36:41;;;;;;;28.45;15.75;;;;;;;;;;5010107;28;20419;-56
2021/07/21 02:39:07;;;;;;;29.80;16.30;;;;;;;;;;5009253;28;20053;-57
2021/07/21 02:41:34;;;;;;;24.98;14.57;;;;;;;;;;5008354;28;20056;-55
2021/07/21 02:44:01;;;;;;;22.80;14.93;;;;;;;;;;5010233;28;20044;-57
2021/07/21 02:46:26;;;;;;;28.50;16.63;;;;;;;;;;5009324;28;20079;-56
2021/07/21 02:48:52;;;;;;;35.70;16.50;;;;;;;;;;5010742;28;21113;-54
2021/07/21 02:51:34;;;;;;;26.48;15.30;;;;;;;;;;5009508;28;20972;-58
2021/07/21 02:54:16;;;;;;;27.90;15.32;;;;;;;;;;5008998;28;20038;-52
2021/07/21 02:56:46;;;;;;;33.00;14.40;;;;;;;;;;5008870;28;20045;-57
2021/07/21 02:59:13;;;;;;;29.45;16.02;;;;;;;;;;5016240;28;20054;-57
2021/07/21 03:01:45;;;;;;;27.77;15.50;;;;;;;;;;5009586;28;20810;-57
2021/07/21 03:04:11;;;;;;;26.30;15.88;;;;;;;;;;5011505;28;20075;-56
2021/07/21 03:06:38;;;;;;;26.88;14.77;;;;;;;;;;5008200;28;20044;-56
2021/07/21 03:09:04;;;;;;;25.20;13.63;;;;;;;;;;5012529;28;20040;-57
2021/07/21 03:11:30;;;;;;;26.88;14.07;;;;;;;;;;5011963;28;20184;-52
2021/07/21 03:14:00;;;;;;;24.23;14.07;;;;;;;;;;5011272;28;20046;-58
2021/07/21 03:16:31;;;;;;;24.98;13.60;;;;;;;;;;5014850;28;20069;-58
2021/07/21 03:19:02;;;;;;;24.38;13.55;;;;;;;;;;5015231;28;20046;-58
2021/07/21 03:21:28;;;;;;;23.73;13.85;;;;;;;;;;5012986;28;20033;-57
2021/07/21 03:23:54;;;;;;;25.80;15.93;;;;;;;;;;5014559;28;20067;-57
2021/07/21 03:26:21;;;;;;;26.02;14.95;;;;;;;;;;5019239;28;20052;-56
2021/07/21 03:29:24;;;;;;;24.65;14.77;;;;;;;;;;5030214;28;20096;-57
2021/07/21 03:31:43;;;;;;;25.38;15.10;;;;;;;;;;5028951;28;20046;-57
2021/07/21 03:34:11;;;;;;;25.23;15.38;;;;;;;;;;5038973;28;20049;-58
2021/07/21 03:36:38;;;;;;;26.42;15.55;;;;;;;;;;5037518;28;20086;-57
2021/07/21 03:39:05;;;;;;;24.00;15.07;;;;;;;;;;5036510;28;20654;-58
2021/07/21 03:41:37;;;;;;;27.65;15.13;;;;;;;;;;5012326;28;20046;-56
2021/07/21 03:44:03;;;;;;;30.10;15.23;;;;;;;;;;5013733;28;20045;-56
2021/07/21 03:46:29;;;;;;;28.55;15.02;;;;;;;;;;5016913;28;20064;-58
2021/07/21 03:48:57;;;;;;;23.77;14.57;;;;;;;;;;5013259;28;20053;-58
2021/07/21 03:51:23;;;;;;;24.52;13.45;;;;;;;;;;5014830;28;20067;-55
2021/07/21 03:53:49;;;;;;;30.38;15.50;;;;;;;;;;5014276;28;20171;-56
2021/07/21 03:56:15;;;;;;;25.05;15.13;;;;;;;;;;5016200;28;20037;-56
2021/07/21 03:58:41;;;;;;;23.58;14.27;;;;;;;;;;5017471;28;20044;-57
2021/07/21 04:01:07;;;;;;;24.38;14.27;;;;;;;;;;5020959;28;20245;-58
2021/07/21 04:03:36;;;;;;;24.40;13.18;;;;;;;;;;5017184;28;20040;-57
2021/07/21 04:06:02;;;;;;;25.45;14.05;;;;;;;;;;5015058;28;20050;-57
2021/07/21 04:08:29;;;;;;;22.30;14.20;;;;;;;;;;5012131;28;20904;-57
2021/07/21 04:10:56;;;;;;;20.77;13.50;;;;;;;;;;5013282;28;20161;-55
2021/07/21 04:13:22;;;;;;;25.83;15.05;;;;;;;;;;5011096;28;20030;-57
2021/07/21 04:15:48;;;;;;;32.90;15.95;;;;;;;;;;5012992;28;20044;-58
2021/07/21 04:18:14;;;;;;;27.20;14.32;;;;;;;;;;5013789;28;20041;-57
2021/07/21 04:20:41;;;;;;;26.23;14.23;;;;;;;;;;5014460;28;20933;-55
2021/07/21 04:23:07;;;;;;;23.38;13.80;;;;;;;;;;5012146;28;20042;-56
2021/07/21 04:25:34;;;;;;;25.98;14.13;;;;;;;;;;5014787;28;20044;-57
2021/07/21 04:28:00;;;;;;;25.83;12.55;;;;;;;;;;5013860;28;20060;-57
2021/07/21 04:30:30;;;;;;;24.73;13.13;;;;;;;;;;5013851;28;20029;-56
2021/07/21 04:32:56;;;;;;;20.33;13.15;;;;;;;;;;5015132;28;20538;-57
2021/07/21 04:35:22;;;;;;;26.55;15.80;;;;;;;;;;5015266;28;20072;-55
2021/07/21 04:37:48;;;;;;;26.30;15.18;;;;;;;;;;5013718;28;20045;-56
2021/07/21 04:40:15;;;;;;;25.65;14.85;;;;;;;;;;5013067;28;20071;-56
2021/07/21 04:42:42;;;;;;;25.92;14.02;;;;;;;;;;5020053;28;20113;-56
2021/07/21 04:45:09;;;;;;;26.67;14.80;;;;;;;;;;5030686;28;20136;-55
2021/07/21 04:47:36;;;;;;;23.73;14.23;;;;;;;;;;5024900;28;20259;-57
2021/07/21 04:50:03;;;;;;;23.45;14.15;;;;;;;;;;5051906;28;20041;-56
2021/07/21 04:52:29;;;;;;;27.83;15.43;;;;;;;;;;5032191;28;20053;-57
2021/07/21 04:54:55;;;;;;;28.23;15.07;;;;;;;;;;5032167;28;20052;-57
2021/07/21 04:57:22;;;;;;;27.33;14.70;;;;;;;;;;5021497;28;20099;-56
2021/07/21 04:59:48;;;;;;;24.35;15.25;;;;;;;;;;5018643;28;20091;-56
2021/07/21 05:02:15;;;;;;;24.02;14.82;;;;;;;;;;5017747;28;20061;-56
2021/07/21 05:04:41;;;;;;;27.40;16.30;;;;;;;;;;5016024;28;20464;-56
2021/07/21 05:07:07;;;;;;;26.92;16.17;;;;;;;;;;5015461;28;20069;-55
2021/07/21 05:09:33;;;;;;;26.33;15.55;;;;;;;;;;5010998;28;20056;-57
2021/07/21 05:11:59;;;;;;;27.23;16.75;;;;;;;;;;5015881;28;20034;-57
2021/07/21 05:14:25;;;;;;;26.25;16.38;;;;;;;;;;5013688;28;20041;-56
2021/07/21 05:16:51;;;;;;;27.02;16.23;;;;;;;;;;5021824;28;20048;-56
2021/07/21 05:19:17;;;;;;;26.67;16.40;;;;;;;;;;5022083;28;20045;-58
2021/07/21 05:21:43;;;;;;;29.95;16.70;;;;;;;;;;5012512;28;21040;-57
2021/07/21 05:24:09;;;;;;;27.73;17.30;;;;;;;;;;5013539;28;20033;-54
2021/07/21 05:26:39;;;;;;;28.60;15.98;;;;;;;;;;5015586;28;20494;-56
2021/07/21 05:29:05;;;;;;;30.13;16.27;;;;;;;;;;5018333;28;20041;-57
2021/07/21 05:31:31;;;;;;;26.50;16.88;;;;;;;;;;5030486;28;20044;-55
2021/07/21 05:34:16;;;;;;;26.80;16.73;;;;;;;;;;5021297;28;20033;-56
2021/07/21 05:36:42;;;;;;;25.17;16.15;;;;;;;;;;5015618;28;20060;-56
2021/07/21 05:39:09;;;;;;;28.05;15.98;;;;;;;;;;5014729;28;20065;-56
2021/07/21 05:41:36;;;;;;;28.60;15.82;;;;;;;;;;5015575;28;20045;-56
2021/07/21 05:44:06;;;;;;;25.80;16.48;;;;;;;;;;5018621;28;20030;-57
2021/07/21 05:46:32;;;;;;;24.13;15.88;;;;;;;;;;4973591;28;20414;-57
2021/07/21 05:48:58;;;;;;;25.88;15.27;;;;;;;;;;4973798;28;20395;-57
2021/07/21 05:51:24;;;;;;;27.70;15.50;;;;;;;;;;4973255;28;20821;-57
2021/07/21 05:53:50;;;;;;;30.55;17.58;;;;;;;;;;4973834;28;20129;-56
2021/07/21 05:56:16;;;;;;;30.33;16.83;;;;;;;;;;4973633;28;20135;-56
2021/07/21 05:58:42;;;;;;;22.77;14.20;;;;;;;;;;4972367;28;20052;-58
2021/07/21 06:01:08;;;;;;;27.63;15.68;;;;;;;;;;4971496;28;20512;-56
2021/07/21 06:03:34;;;;;;;28.60;16.08;;;;;;;;;;4975640;28;20038;-58
2021/07/21 06:05:59;;;;;;;24.95;14.50;;;;;;;;;;4976031;28;20744;-56
2021/07/21 06:08:25;;;;;;;25.88;15.10;;;;;;;;;;4975493;28;20159;-57
2021/07/21 06:10:51;;;;;;;26.00;14.63;;;;;;;;;;4956860;28;20043;-57
2021/07/21 06:13:17;;;;;;;23.65;12.80;;;;;;;;;;4983649;28;20536;-54
2021/07/21 06:15:43;;;;;;;25.83;14.65;;;;;;;;;;4984280;28;20141;-58
2021/07/21 06:18:09;;;;;;;26.52;15.35;;;;;;;;;;4986761;28;20109;-56
2021/07/21 06:20:36;;;;;;;24.27;13.73;;;;;;;;;;4989869;28;20049;-57
2021/07/21 06:23:02;;;;;;;26.50;15.68;;;;;;;;;;4990661;28;20221;-56
2021/07/21 06:25:28;;;;;;;24.20;13.93;;;;;;;;;;5013772;28;20034;-57
2021/07/21 06:27:54;;;;;;;25.38;14.85;;;;;;;;;;5013625;28;20041;-55
2021/07/21 06:30:20;;;;;;;25.75;14.82;;;;;;;;;;5014626;28;20026;-56
2021/07/21 06:32:47;;;;;;;23.55;13.88;;;;;;;;;;5011578;28;20038;-60
2021/07/21 06:35:13;;;;;;;24.33;14.65;;;;;;;;;;5015040;28;20533;-56
2021/07/21 06:37:39;;;;;;;25.65;14.73;;;;;;;;;;5026221;28;20060;-56
2021/07/21 06:40:05;;;;;;;27.63;14.95;;;;;;;;;;5012816;28;20541;-57
2021/07/21 06:42:31;;;;;;;28.02;15.20;;;;;;;;;;5009584;28;20050;-57
2021/07/21 06:44:57;;;;;;;27.70;15.05;;;;;;;;;;5031858;28;20105;-57
2021/07/21 06:47:23;;;;;;;23.58;14.57;;;;;;;;;;5025864;28;20127;-55
2021/07/21 06:49:49;;;;;;;23.27;14.25;;;;;;;;;;5017758;28;20065;-57
2021/07/21 06:52:16;;;;;;;25.83;14.90;;;;;;;;;;5011332;28;20262;-57
2021/07/21 06:54:42;;;;;;;28.08;14.80;;;;;;;;;;5014703;28;20040;-57
2021/07/21 06:57:18;;;;;;;26.27;13.43;;;;;;;;;;5013756;28;20057;-55
2021/07/21 06:59:44;;;;;;;24.20;13.65;;;;;;;;;;5010293;28;20119;-58
2021/07/21 07:02:20;;;;;;;24.70;15.05;;;;;;;;;;5019401;28;20041;-55
2021/07/21 07:04:46;;;;;;;27.85;14.98;;;;;;;;;;4990073;28;20131;-57
2021/07/21 07:07:12;;;;;;;23.40;14.52;;;;;;;;;;5003251;28;20062;-57
2021/07/21 07:09:38;;;;;;;25.67;14.30;;;;;;;;;;4994495;28;20041;-57
2021/07/21 07:12:04;;;;;;;24.55;14.07;;;;;;;;;;5002552;28;20108;-57
2021/07/21 07:14:30;;;;;;;22.70;12.98;;;;;;;;;;4990267;28;20076;-57
2021/07/21 07:16:56;;;;;;;24.75;13.45;;;;;;;;;;4991634;28;20749;-57
2021/07/21 07:19:21;;;;;;;24.17;13.38;;;;;;;;;;4998384;28;20049;-57
2021/07/21 07:21:47;;;;;;;20.98;12.95;;;;;;;;;;4998034;28;20044;-57
2021/07/21 07:24:16;;;;;;;28.23;13.80;;;;;;;;;;4994214;28;20042;-59
2021/07/21 07:26:42;;;;;;;27.23;14.05;;;;;;;;;;4966147;28;20053;-58
2021/07/21 07:29:13;;;;;;;24.45;12.93;;;;;;;;;;5002411;28;20062;-58
2021/07/21 07:31:39;;;;;;;24.13;12.35;;;;;;;;;;4998500;28;20033;-57
2021/07/21 07:34:05;;;;;;;23.40;12.70;;;;;;;;;;4998023;28;20042;-57
2021/07/21 07:36:31;;;;;;;25.00;13.48;;;;;;;;;;4989953;28;20081;-58
2021/07/21 07:38:56;;;;;;;24.98;13.70;;;;;;;;;;4994014;28;20030;-52
2021/07/21 07:41:22;;;;;;;23.00;12.98;;;;;;;;;;4995240;28;20550;-57
2021/07/21 07:43:49;;;;;;;22.63;13.50;;;;;;;;;;4993598;28;20101;-54
2021/07/21 07:46:16;;;;;;;18.55;11.82;;;;;;;;;;5006884;28;20048;-59
2021/07/21 07:48:42;;;;;;;21.23;12.02;;;;;;;;;;5011652;28;20052;-58
2021/07/21 07:51:08;;;;;;;21.73;12.45;;;;;;;;;;5002145;28;20034;-56
2021/07/21 07:53:34;;;;;;;23.42;11.85;;;;;;;;;;5001294;28;20051;-56
2021/07/21 07:56:00;;;;;;;21.92;11.90;;;;;;;;;;5009535;28;20066;-54
2021/07/21 07:58:39;;;;;;;;;;;;;;;;;;;;;
2021/07/21 08:01:09;;;;;;;21.67;11.60;;;;;;;;;;5019846;28;20054;-56
2021/07/21 08:03:35;;;;;;;19.83;11.98;;;;;;;;;;5013121;28;20042;-56
2021/07/21 08:06:21;;;;;;;21.65;11.85;;;;;;;;;;4979892;28;20483;-56
2021/07/21 08:08:47;;;;;;;20.10;11.55;;;;;;;;;;4991337;28;20046;-56
2021/07/21 08:11:12;;;;;;;24.30;11.95;;;;;;;;;;4979256;28;20039;-57
2021/07/21 08:13:41;;;;;;;23.95;12.55;;;;;;;;;;4977054;28;20046;-57
2021/07/21 08:16:07;;;;;;;25.13;13.57;;;;;;;;;;4993014;28;20042;-57
2021/07/21 08:18:41;;;;;;;21.77;13.68;;;;;;;;;;4989689;28;20046;-58
2021/07/21 08:21:07;;;;;;;23.77;13.05;;;;;;;;;;4989470;28;20054;-54
2021/07/21 08:23:33;;;;;;;23.88;13.10;;;;;;;;;;4990774;28;20054;-54
2021/07/21 08:25:59;;;;;;;23.08;12.57;;;;;;;;;;4996204;28;20895;-56
2021/07/21 08:28:28;;;;;;;23.90;12.63;;;;;;;;;;4985978;28;20061;-57
2021/07/21 08:30:54;;;;;;;22.23;12.63;;;;;;;;;;4987894;28;20135;-55
2021/07/21 08:33:20;;;;;;;25.33;13.93;;;;;;;;;;4982914;28;20046;-55
2021/07/21 08:35:46;;;;;;;27.33;13.23;;;;;;;;;;4986046;28;20463;-54
2021/07/21 08:38:12;;;;;;;24.08;12.68;;;;;;;;;;4986871;28;20068;-55
2021/07/21 08:40:40;;;;;;;21.90;12.48;;;;;;;;;;4985460;28;20137;-57
2021/07/21 08:43:07;;;;;;;23.52;12.57;;;;;;;;;;4988192;28;20061;-57
2021/07/21 08:45:33;;;;;;;19.05;11.98;;;;;;;;;;4993383;28;20061;-56
2021/07/21 08:47:59;;;;;;;21.40;12.43;;;;;;;;;;4993693;28;20407;-56
2021/07/21 08:50:24;;;;;;;24.15;13.40;;;;;;;;;;4991465;28;20049;-57
2021/07/21 08:52:56;;;;;;;23.48;12.30;;;;;;;;;;5007566;28;20176;-55
2021/07/21 08:55:23;;;;;;;25.13;13.00;;;;;;;;;;4991369;28;20050;-57
2021/07/21 08:57:49;;;;;;;22.00;12.80;;;;;;;;;;4993204;28;20426;-56
2021/07/21 09:00:16;;;;;;;23.38;13.10;;;;;;;;;;4992351;28;20082;-56
2021/07/21 09:02:43;;;;;;;23.77;13.60;;;;;;;;;;4991527;28;20042;-55
2021/07/21 09:05:10;;;;;;;20.48;12.40;;;;;;;;;;4994275;28;20047;-55
2021/07/21 09:07:39;;;;;;;23.85;12.48;;;;;;;;;;4995236;28;20103;-54
2021/07/21 09:10:06;;;;;;;21.63;11.60;;;;;;;;;;4994212;28;20035;-55
2021/07/21 09:12:32;;;;;;;25.17;13.50;;;;;;;;;;4992880;28;21897;-54
2021/07/21 09:14:58;;;;;;;22.73;12.13;;;;;;;;;;4994044;28;20040;-55
2021/07/21 09:17:26;;;;;;;24.17;12.57;;;;;;;;;;4991701;28;20080;-56
2021/07/21 09:19:52;;;;;;;22.27;11.73;;;;;;;;;;4992338;28;20158;-56
2021/07/21 09:22:34;;;;;;;23.45;12.68;;;;;;;;;;4992922;28;20511;-55
2021/07/21 09:25:09;;;;;;;22.07;13.60;;;;;;;;;;4993871;28;20133;-57
2021/07/21 09:27:35;;;;;;;26.58;14.48;;;;;;;;;;4992508;28;20046;-57
2021/07/21 09:30:01;;;;;;;26.85;14.15;;;;;;;;;;4992004;28;20050;-55
2021/07/21 09:32:27;;;;;;;21.30;12.80;;;;;;;;;;4990308;28;20042;-57
2021/07/21 09:34:53;;;;;;;23.88;14.13;;;;;;;;;;4992573;28;20042;-56
2021/07/21 09:37:20;;;;;;;23.63;13.15;;;;;;;;;;4990701;28;20061;-56
2021/07/21 09:39:50;;;;;;;25.95;13.93;;;;;;;;;;4990954;28;20061;-55
2021/07/21 09:42:16;;;;;;;23.67;13.07;;;;;;;;;;4991099;28;20081;-57
2021/07/21 09:44:43;;;;;;;23.40;13.18;;;;;;;;;;4989774;28;20092;-56
2021/07/21 09:47:12;;;;;;;24.15;13.73;;;;;;;;;;4991317;28;20040;-56
2021/07/21 09:49:38;;;;;;;29.20;14.07;;;;;;;;;;4990101;28;20599;-57
2021/07/21 09:52:18;;;;;;;24.67;13.70;;;;;;;;;;4989675;28;20042;-56
2021/07/21 09:55:04;;;;;;;24.67;12.10;;;;;;;;;;4991697;28;20050;-58
2021/07/21 09:57:30;;;;;;;25.73;14.20;;;;;;;;;;4980582;28;20049;-55
2021/07/21 09:59:58;;;;;;;25.30;13.65;;;;;;;;;;4990238;28;20046;-54
2021/07/21 10:02:27;;;;;;;28.58;14.52;;;;;;;;;;4991244;28;20034;-56
2021/07/21 10:04:53;;;;;;;27.65;13.98;;;;;;;;;;4992488;28;20041;-54
2021/07/21 10:10:15;;;;;;;24.05;13.90;;;;;;;;;;4991194;28;20035;-57
2021/07/21 10:12:41;;;;;;;27.38;15.35;;;;;;;;;;4990062;28;20127;-57
2021/07/21 10:15:07;;;;;;;25.20;14.15;;;;;;;;;;4991521;28;20030;-57
2021/07/21 10:17:33;;;;;;;25.67;15.15;;;;;;;;;;4990244;28;20111;-58
2021/07/21 10:19:59;;;;;;;29.00;14.85;;;;;;;;;;4986984;28;20709;-58
2021/07/21 10:22:25;;;;;;;26.38;14.48;;;;;;;;;;4989732;28;20038;-56
2021/07/21 10:24:51;;;;;;;26.80;15.13;;;;;;;;;;4991618;28;20049;-55
2021/07/21 10:27:17;;;;;;;28.90;15.32;;;;;;;;;;4991943;28;20033;-56
2021/07/21 10:29:43;;;;;;;27.08;13.70;;;;;;;;;;4990523;28;20091;-57
2021/07/21 10:32:10;;;;;;;25.67;14.80;;;;;;;;;;4989769;28;20112;-55
2021/07/21 10:34:36;;;;;;;27.15;13.25;;;;;;;;;;4988822;28;21991;-57
2021/07/21 10:37:02;;;;;;;24.33;13.68;;;;;;;;;;4989490;28;20038;-56
2021/07/21 10:39:32;;;;;;;27.13;13.68;;;;;;;;;;5004031;28;20049;-57
2021/07/21 10:42:07;;;;;;;25.13;13.23;;;;;;;;;;4989574;28;20077;-57
2021/07/21 10:44:33;;;;;;;23.48;12.57;;;;;;;;;;4990628;28;20443;-56
2021/07/21 10:47:02;;;;;;;24.58;13.32;;;;;;;;;;4990385;28;20040;-56
2021/07/21 10:49:37;;;;;;;22.33;12.45;;;;;;;;;;4989191;28;20052;-56
2021/07/21 10:52:23;;;;;;;24.83;14.00;;;;;;;;;;4987942;28;20034;-56
2021/07/21 11:00:37;;;;;;;23.63;12.90;;;;;;;;;;4988177;28;20085;-57
2021/07/21 11:03:21;;;;;;;27.33;13.85;;;;;;;;;;4990077;28;20038;-56
2021/07/21 11:05:56;;;;;;;24.40;13.18;;;;;;;;;;4988853;28;20049;-56
2021/07/21 11:08:23;;;;;;;24.90;12.68;;;;;;;;;;4988833;28;20542;-56
2021/07/21 11:10:49;;;;;;;18.95;12.55;;;;;;;;;;4989086;28;20399;-56
2021/07/21 11:13:27;;;;;;;22.90;12.23;;;;;;;;;;4988337;28;20092;-56
2021/07/21 11:15:54;;;;;;;30.08;14.57;;;;;;;;;;4988223;28;20067;-52
2021/07/21 11:18:22;;;;;;;23.52;13.75;;;;;;;;;;4988329;28;20034;-56
2021/07/21 11:20:58;;;;;;;23.83;13.02;;;;;;;;;;4989383;28;20128;-58
2021/07/21 11:23:42;;;;;;;21.75;12.02;;;;;;;;;;4990459;28;20052;-55
2021/07/21 11:26:26;;;;;;;24.60;12.60;;;;;;;;;;4989658;28;20041;-58
2021/07/21 11:28:51;;;;;;;21.20;12.00;;;;;;;;;;4987510;28;20960;-56
2021/07/21 11:31:18;;;;;;;24.05;12.73;;;;;;;;;;4991031;28;20038;-57
2021/07/21 11:34:01;;;;;;;18.73;11.02;;;;;;;;;;4987769;28;20444;-56
2021/07/21 11:36:39;;;;;;;20.92;11.80;;;;;;;;;;4988182;28;20050;-54
2021/07/21 11:39:06;;;;;;;23.50;11.63;;;;;;;;;;4994202;28;20053;-56
2021/07/21 11:41:44;;;;;;;21.20;11.10;;;;;;;;;;4989615;28;20042;-57
2021/07/21 11:44:11;;;;;;;20.15;11.95;;;;;;;;;;4989544;28;20053;-55
2021/07/21 11:46:37;;;;;;;25.17;11.90;;;;;;;;;;4990689;28;20045;-57
2021/07/21 11:49:03;;;;;;;21.27;11.50;;;;;;;;;;4989332;28;20141;-55
2021/07/21 11:51:29;;;;;;;19.33;11.63;;;;;;;;;;4990163;28;20644;-55
2021/07/21 11:53:55;;;;;;;21.88;11.85;;;;;;;;;;4989604;28;20042;-55
2021/07/21 11:56:20;;;;;;;30.23;12.35;;;;;;;;;;4988331;28;20042;-57
2021/07/21 11:58:46;;;;;;;18.15;10.98;;;;;;;;;;4990651;28;20460;-58
2021/07/21 12:01:12;;;;;;;20.33;11.60;;;;;;;;;;4990973;28;20073;-58
2021/07/21 12:03:48;;;;;;;24.35;12.00;;;;;;;;;;4989063;28;20065;-58
2021/07/21 12:06:26;;;;;;;24.27;12.02;;;;;;;;;;4993009;28;20053;-57
2021/07/21 12:08:56;;;;;;;26.15;11.68;;;;;;;;;;5000298;28;20042;-57
2021/07/21 12:11:25;;;;;;;18.40;9.77;;;;;;;;;;5018407;28;20037;-60
2021/07/21 12:14:04;;;;;;;19.92;11.35;;;;;;;;;;5024013;28;20064;-57
2021/07/21 12:16:32;;;;;;;21.45;12.43;;;;;;;;;;5019354;28;20096;-56
2021/07/21 12:19:01;;;;;;;22.48;11.88;;;;;;;;;;5009190;28;20046;-57
2021/07/21 12:21:29;;;;;;;24.33;11.25;;;;;;;;;;4998850;28;20056;-53
2021/07/21 12:23:59;;;;;;;19.80;10.55;;;;;;;;;;5001356;28;20526;-57
2021/07/21 12:26:24;;;;;;;24.20;11.50;;;;;;;;;;4996688;28;20049;-58
2021/07/21 12:28:56;;;;;;;20.08;11.18;;;;;;;;;;4999127;28;20073;-57
2021/07/21 12:31:31;;;;;;;23.58;12.10;;;;;;;;;;5000264;28;20065;-57
2021/07/21 12:34:17;;;;;;;20.50;10.93;;;;;;;;;;5000124;28;20049;-59
2021/07/21 12:36:47;;;;;;;20.40;11.40;;;;;;;;;;5002675;28;20046;-57
2021/07/21 12:39:15;;;;;;;20.55;11.85;;;;;;;;;;4998429;28;20060;-55
2021/07/21 12:41:41;;;;;;;23.80;11.93;;;;;;;;;;4994010;28;20054;-59
2021/07/21 12:44:14;;;;;;;24.92;11.60;;;;;;;;;;4994303;28;20034;-57
2021/07/21 12:46:40;;;;;;;20.50;11.77;;;;;;;;;;4997704;28;20096;-57
2021/07/21 12:49:06;;;;;;;21.48;11.27;;;;;;;;;;4995046;28;20042;-56
2021/07/21 12:51:32;;;;;;;23.88;11.77;;;;;;;;;;4991853;28;20073;-57
2021/07/21 12:53:58;;;;;;;24.45;12.68;;;;;;;;;;4996096;28;20597;-56
2021/07/21 12:56:24;;;;;;;20.30;10.88;;;;;;;;;;4991419;28;20089;-54
2021/07/21 12:59:12;;;;;;;19.70;10.32;;;;;;;;;;4991049;28;20104;-58
2021/07/21 13:01:38;;;;;;;23.02;12.07;;;;;;;;;;4990820;28;20783;-58
2021/07/21 13:04:04;;;;;;;21.67;11.57;;;;;;;;;;4993458;28;20037;-58
2021/07/21 13:06:30;;;;;;;21.55;12.88;;;;;;;;;;4991376;28;20123;-55
2021/07/21 13:08:56;;;;;;;20.88;11.43;;;;;;;;;;4991416;28;20205;-55
2021/07/21 13:11:27;;;;;;;20.38;11.27;;;;;;;;;;4991501;28;20045;-56
2021/07/21 13:13:57;;;;;;;21.10;12.07;;;;;;;;;;4992116;28;20035;-58
2021/07/21 13:16:33;;;;;;;23.30;12.48;;;;;;;;;;4991066;28;20042;-57
2021/07/21 13:19:09;;;;;;;24.23;12.23;;;;;;;;;;4990386;28;20483;-57
2021/07/21 13:21:45;;;;;;;21.17;12.70;;;;;;;;;;4991113;28;20129;-58
2021/07/21 13:24:12;;;;;;;25.83;13.45;;;;;;;;;;4991695;28;20879;-57
2021/07/21 13:26:39;;;;;;;24.75;12.93;;;;;;;;;;4996100;28;20497;-56
2021/07/21 13:29:06;;;;;;;19.55;11.75;;;;;;;;;;4992170;28;20069;-57
2021/07/21 13:31:33;;;;;;;23.13;12.38;;;;;;;;;;5002079;28;20044;-56
2021/07/21 13:33:59;;;;;;;26.73;12.95;;;;;;;;;;5017873;28;20041;-57
2021/07/21 13:36:27;;;;;;;21.88;11.85;;;;;;;;;;5009445;28;20121;-58
2021/07/21 13:38:55;;;;;;;24.52;12.32;;;;;;;;;;4997237;28;20129;-57
2021/07/21 13:41:35;;;;;;;24.27;12.80;;;;;;;;;;4994410;28;20061;-56
2021/07/21 13:44:06;;;;;;;22.23;11.88;;;;;;;;;;5009352;28;20045;-56
2021/07/21 13:46:33;;;;;;;22.10;12.43;;;;;;;;;;4993002;28;20039;-55
2021/07/21 13:49:02;;;;;;;26.20;13.18;;;;;;;;;;4992354;28;20485;-56
2021/07/21 13:51:34;;;;;;;24.45;12.73;;;;;;;;;;4992104;28;20411;-55
2021/07/21 13:54:15;;;;;;;22.60;13.18;;;;;;;;;;4990983;28;20069;-56
2021/07/21 13:56:41;;;;;;;20.63;12.38;;;;;;;;;;4992409;28;20045;-55
2021/07/21 13:59:07;;;;;;;22.92;13.00;;;;;;;;;;4994423;28;20034;-56
2021/07/21 14:01:33;;;;;;;25.17;13.40;;;;;;;;;;4993890;28;20676;-57
2021/07/21 14:03:59;;;;;;;22.23;12.75;;;;;;;;;;4996430;28;22745;-56
2021/07/21 14:06:28;;;;;;;22.77;12.65;;;;;;;;;;4994286;28;20495;-58
2021/07/21 14:08:57;;;;;;;22.30;13.07;;;;;;;;;;4993375;28;20052;-57
2021/07/21 14:11:44;;;;;;;21.80;12.73;;;;;;;;;;4988358;28;20522;-55
2021/07/21 14:14:10;;;;;;;23.20;12.65;;;;;;;;;;4987318;28;20043;-55
2021/07/21 14:16:37;;;;;;;21.92;12.90;;;;;;;;;;4986119;28;20046;-57
2021/07/21 14:19:03;;;;;;;23.63;13.20;;;;;;;;;;4987620;28;20048;-54
2021/07/21 14:21:29;;;;;;;23.67;13.38;;;;;;;;;;4986208;28;20061;-56
2021/07/21 14:23:57;;;;;;;21.58;12.55;;;;;;;;;;4985627;28;20042;-55
2021/07/21 14:26:24;;;;;;;24.65;14.20;;;;;;;;;;4985146;28;20515;-56
2021/07/21 14:28:50;;;;;;;24.45;12.10;;;;;;;;;;4987152;28;20046;-56
2021/07/21 14:31:16;;;;;;;20.80;11.90;;;;;;;;;;4986184;28;21118;-57
2021/07/21 14:33:42;;;;;;;25.80;12.63;;;;;;;;;;4987236;28;20042;-56
2021/07/21 14:36:08;;;;;;;25.05;14.15;;;;;;;;;;4987566;28;20056;-55
2021/07/21 14:38:55;;;;;;;25.13;13.13;;;;;;;;;;4950788;28;20518;-57